Search for airport 
image banner adimage banner ad
image banner ad

SVBE - San Benito

Located in Zulia, Venezuela

ICAO - SVBE, IATA -

Data provided by Airmate  

General information

Coordinates: N10°18'48" W72°3'48"
Elevation is 249 feet MSL.
 
View others Airports in Zulia

Operational data

Open for public use
Current time UTC:
Current local time:
Weather at : SVMC - Maracaibo / La Chinita Intl ( 46 km )
TAF: TAF SVMC 222200Z 2218/2318 11001KT 9999 SCT016 TX33/2219Z TN25/2208Z PROB30 TEMPO 2218/2222 09005KT 9000 -DZ BKN016
View NOTAMs / SUP AIP / TFR affecting this airport [VIEW]
Communications frequencies: [VIEW]

Runways:

RWY identifierQFULength (ft)Width (ft)SurfaceLDA (ft)
0200
2000

Airport contact information

Address: Zulia Venezuela

Satellite view of SVBE